createdAt,value
2016-07-25T17:18:21.648Z,36128
2016-07-25T17:18:30.255Z,35296
2016-07-25T17:19:30.242Z,28096
2016-07-25T17:20:30.283Z,23040
2016-07-25T17:21:30.263Z,20000
2016-07-25T17:22:30.258Z,19904
2016-07-25T17:23:30.219Z,17280
2016-07-25T17:24:30.258Z,14892
2016-07-25T17:25:30.227Z,13336
2016-07-25T17:26:30.231Z,12900
2016-07-25T17:27:30.237Z,12932
2016-07-25T17:28:30.221Z,15728
2016-07-25T17:29:30.207Z,17856
2016-07-25T17:30:30.185Z,20896
2016-07-25T17:31:30.203Z,17440
2016-07-25T17:32:30.202Z,16576
2016-07-25T17:33:30.181Z,13076
2016-07-25T17:34:30.188Z,9388
2016-07-25T17:35:30.194Z,8184
2016-07-25T17:36:30.177Z,7932
2016-07-25T17:37:30.177Z,7608
2016-07-25T17:38:30.162Z,6628
2016-07-25T17:39:30.161Z,6040
2016-07-25T17:40:30.168Z,5892
2016-07-25T17:41:30.147Z,5472
2016-07-25T17:42:30.140Z,5488
2016-07-25T17:43:30.149Z,6308
2016-07-25T17:44:30.132Z,6836
2016-07-25T17:45:30.128Z,5252
2016-07-25T17:46:30.138Z,4984
2016-07-25T17:47:30.137Z,4040
2016-07-25T17:48:30.139Z,3384
2016-07-25T17:49:30.116Z,2912
2016-07-25T17:50:30.128Z,2676
2016-07-25T17:51:30.088Z,2528
2016-07-25T17:52:30.089Z,2276
2016-07-25T17:53:30.788Z,2156
2016-07-25T17:54:30.067Z,1980
2016-07-25T17:55:30.082Z,1932
2016-07-25T17:56:30.072Z,1900
2016-07-25T17:57:30.064Z,1688
2016-07-25T17:58:30.061Z,1336
2016-07-25T17:59:30.077Z,1108
2016-07-25T18:00:30.068Z,1024
2016-07-25T18:01:30.072Z,992
2016-07-25T18:02:30.057Z,1064
2016-07-25T18:03:30.008Z,1188
2016-07-25T18:04:30.029Z,1248
2016-07-25T18:05:30.011Z,1244
2016-07-25T18:06:30.024Z,1180
2016-07-25T18:07:29.997Z,1152
2016-07-25T18:08:29.988Z,1200
2016-07-25T18:09:29.997Z,1204
2016-07-25T18:10:30.006Z,1236
2016-07-25T18:11:29.989Z,1260
2016-07-25T18:12:29.977Z,1356
2016-07-25T18:13:29.983Z,1484
2016-07-25T18:14:30.152Z,1568
2016-07-25T18:15:29.968Z,1504
2016-07-25T18:16:29.964Z,1416
2016-07-25T18:18:29.969Z,1316
2016-07-25T18:19:29.963Z,1196
2016-07-25T18:20:29.941Z,1200
2016-07-25T18:21:29.933Z,1180
2016-07-25T18:22:29.909Z,1152
2016-07-25T18:23:29.927Z,1060
2016-07-25T18:24:29.905Z,904
2016-07-25T18:25:29.915Z,908
2016-07-25T18:26:29.916Z,800
2016-07-25T18:27:29.885Z,752
2016-07-25T18:28:29.891Z,692
2016-07-25T18:29:29.902Z,640
2016-07-25T18:30:29.884Z,548
2016-07-25T18:31:29.884Z,432
2016-07-25T18:33:29.880Z,344
2016-07-25T18:34:29.834Z,352
2016-07-25T18:35:29.862Z,364
2016-07-25T18:36:29.866Z,364
2016-07-25T18:37:29.844Z,372
2016-07-25T18:38:29.846Z,408
2016-07-25T18:39:29.839Z,448
2016-07-25T18:40:29.850Z,416
2016-07-25T18:41:29.841Z,340
2016-07-25T18:42:29.818Z,312
2016-07-25T18:43:29.830Z,332
2016-07-25T18:44:29.805Z,364
2016-07-25T18:45:29.816Z,368
2016-07-25T18:46:29.787Z,344
2016-07-25T18:48:29.779Z,300
2016-07-25T18:49:29.785Z,300
2016-07-25T18:50:29.749Z,304
2016-07-25T18:51:29.766Z,328
2016-07-25T18:52:29.744Z,328
2016-07-25T18:53:29.740Z,304
2016-07-25T18:54:29.739Z,280
2016-07-25T18:55:29.715Z,256
2016-07-25T18:56:29.722Z,220
2016-07-25T18:57:29.730Z,196
2016-07-25T18:58:29.710Z,184
2016-07-25T18:59:29.719Z,180
2016-07-25T19:00:29.677Z,172
2016-07-25T19:01:29.711Z,156
2016-07-25T19:03:29.667Z,116
2016-07-25T19:04:29.697Z,128
2016-07-25T19:05:29.683Z,124
2016-07-25T19:06:29.662Z,104
2016-07-25T19:07:29.673Z,88
2016-07-25T19:08:29.667Z,80
2016-07-25T19:09:29.638Z,72
2016-07-25T19:10:29.650Z,68
2016-07-25T19:11:29.649Z,56
2016-07-25T19:12:29.606Z,52
2016-07-25T19:13:29.631Z,40
2016-07-25T19:14:29.592Z,32
2016-07-25T19:15:29.605Z,28
2016-07-25T19:16:29.614Z,20
2016-07-25T19:18:29.608Z,16
2016-07-25T19:19:29.594Z,12
2016-07-25T19:20:29.579Z,8
2016-07-25T19:21:29.575Z,8
2016-07-25T19:22:29.569Z,8
2016-07-25T19:23:29.547Z,4
2016-07-25T19:24:29.562Z,4
2016-07-25T19:25:29.550Z,4
2016-07-25T19:26:29.516Z,0
2016-07-25T19:27:29.537Z,4
2016-07-25T19:28:29.524Z,4
2016-07-25T19:29:29.518Z,4
2016-07-25T19:30:29.509Z,0
2016-07-25T19:31:29.507Z,0
2016-07-25T19:33:29.502Z,0
2016-07-25T19:34:29.488Z,0
2016-07-25T19:35:29.468Z,0
2016-07-25T19:36:29.469Z,0
2016-07-25T19:37:29.476Z,0
2016-07-25T19:38:29.470Z,0
2016-07-25T19:39:29.468Z,0
2016-07-25T19:40:29.429Z,0
2016-07-25T19:41:29.462Z,0
2016-07-25T19:42:29.444Z,0
2016-07-25T19:43:29.420Z,0
2016-07-25T19:44:29.430Z,0
2016-07-25T19:45:29.438Z,0
2016-07-25T19:46:29.423Z,0
2016-07-25T19:48:29.420Z,0
2016-07-25T19:49:29.394Z,0
2016-07-25T19:50:29.394Z,0
2016-07-25T19:51:29.380Z,0
2016-07-25T19:52:29.400Z,0
2016-07-25T19:53:29.375Z,0
2016-07-25T19:54:29.372Z,0
2016-07-25T19:55:29.358Z,0
2016-07-25T19:56:29.350Z,0
2016-07-25T19:57:29.344Z,0
2016-07-25T19:58:29.344Z,0
2016-07-25T19:59:29.329Z,0
2016-07-25T20:00:29.357Z,0
2016-07-25T20:01:29.329Z,0
2016-07-25T20:03:29.324Z,0
2016-07-25T20:04:29.292Z,0
2016-07-25T20:05:29.301Z,0
2016-07-25T20:06:29.299Z,0
2016-07-25T20:07:29.305Z,0
2016-07-25T20:08:29.294Z,0
2016-07-25T20:09:29.270Z,0
2016-07-25T20:10:29.270Z,0
2016-07-25T20:11:29.256Z,0
2016-07-25T20:12:29.267Z,0
2016-07-25T20:13:29.285Z,0
2016-07-25T20:14:29.274Z,0
2016-07-25T20:15:29.226Z,0
2016-07-25T20:16:29.222Z,0
2016-07-25T20:17:29.234Z,0
2016-07-25T20:18:29.208Z,0
2016-07-25T20:19:29.239Z,0
2016-07-25T20:20:29.220Z,0
2016-07-25T20:21:29.204Z,0
2016-07-25T20:22:29.188Z,0
2016-07-25T20:23:29.199Z,0
2016-07-25T20:24:29.218Z,0
2016-07-25T20:25:29.185Z,0
2016-07-25T20:26:29.189Z,0
2016-07-25T20:27:29.899Z,0
2016-07-25T20:28:29.171Z,0
2016-07-25T20:29:29.192Z,0
2016-07-25T20:30:29.159Z,0
2016-07-25T20:31:29.175Z,0
2016-07-25T20:32:29.170Z,0
2016-07-25T20:33:29.173Z,0
2016-07-25T20:34:29.122Z,0
2016-07-25T20:35:29.139Z,0
2016-07-25T20:36:29.137Z,0
2016-07-25T20:37:29.130Z,0
2016-07-25T20:38:29.134Z,0
2016-07-25T20:39:29.118Z,0
2016-07-25T20:40:29.107Z,0
2016-07-25T20:41:29.117Z,0
2016-07-25T20:42:29.094Z,0
2016-07-25T20:43:29.092Z,0
2016-07-25T20:44:29.075Z,0
2016-07-25T20:45:29.091Z,0
2016-07-25T20:46:29.082Z,0
2016-07-25T20:47:29.054Z,0
2016-07-25T20:48:29.074Z,0
2016-07-25T20:49:29.050Z,0
2016-07-25T20:50:29.066Z,0
2016-07-25T20:51:29.057Z,0
2016-07-25T20:52:29.057Z,0
2016-07-25T20:53:29.034Z,0
2016-07-25T20:54:29.014Z,0
2016-07-25T20:55:29.025Z,0
2016-07-25T20:56:29.003Z,0
2016-07-25T20:57:29.017Z,0
2016-07-25T20:58:29.034Z,0
2016-07-25T20:59:28.983Z,0
2016-07-25T21:00:29.002Z,0
2016-07-25T21:01:28.957Z,0
2016-07-25T21:02:28.966Z,0
2016-07-25T21:03:28.964Z,0
2016-07-25T21:04:28.967Z,0
2016-07-25T21:05:29.650Z,0
2016-07-25T21:06:28.959Z,0
2016-07-25T21:07:28.954Z,0
2016-07-25T21:08:28.939Z,0
2016-07-25T21:09:28.909Z,0
2016-07-25T21:10:28.920Z,0
2016-07-25T21:11:28.929Z,0
2016-07-25T21:12:28.900Z,0
2016-07-25T21:13:28.918Z,0
2016-07-25T21:14:28.910Z,0
2016-07-25T21:15:28.933Z,0
2016-07-25T21:16:28.892Z,0
2016-07-25T21:17:28.896Z,0
2016-07-25T21:18:28.892Z,0
2016-07-25T21:19:28.887Z,0
2016-07-25T21:20:28.860Z,0
2016-07-25T21:21:28.892Z,0
2016-07-25T21:22:28.890Z,0
2016-07-25T21:23:28.846Z,0
2016-07-25T21:24:28.876Z,0
2016-07-25T21:25:28.831Z,0
2016-07-25T21:26:28.853Z,0
2016-07-25T21:27:28.837Z,0
2016-07-25T21:28:28.829Z,0
2016-07-25T21:29:28.829Z,0
2016-07-25T21:30:28.807Z,0
2016-07-25T21:31:28.818Z,0
2016-07-25T21:32:28.796Z,0
2016-07-25T21:33:29.500Z,0
2016-07-25T21:34:28.784Z,0
2016-07-25T21:35:28.798Z,0
2016-07-25T21:36:28.802Z,0
2016-07-25T21:37:28.758Z,0
2016-07-25T21:38:28.769Z,0
2016-07-25T21:39:28.767Z,0
2016-07-25T21:40:28.734Z,0
2016-07-25T21:41:28.766Z,0
2016-07-25T21:42:28.776Z,0
2016-07-25T21:43:28.733Z,0
2016-07-25T21:44:28.759Z,0
2016-07-25T21:45:28.732Z,0
2016-07-25T21:46:28.738Z,0
2016-07-25T21:47:28.727Z,0
2016-07-25T21:48:29.417Z,0
2016-07-25T21:49:29.398Z,0
2016-07-25T21:50:28.691Z,0
2016-07-25T21:51:29.405Z,0
2016-07-25T21:52:28.696Z,0
2016-07-25T21:53:28.670Z,0
2016-07-25T21:54:28.701Z,0
2016-07-25T21:55:28.665Z,0
2016-07-25T21:56:28.674Z,0
2016-07-25T21:57:28.659Z,0
2016-07-25T21:58:28.654Z,0
2016-07-25T21:59:28.634Z,0
2016-07-25T22:00:28.630Z,0
2016-07-25T22:01:28.636Z,0
2016-07-25T22:02:28.645Z,0
2016-07-25T22:03:28.633Z,0
2016-07-25T22:04:28.617Z,0
2016-07-25T22:05:28.636Z,0
2016-07-25T22:06:28.628Z,0
2016-07-25T22:07:28.622Z,0
2016-07-25T22:08:28.601Z,0
2016-07-25T22:09:28.585Z,0
2016-07-25T22:10:28.576Z,0
2016-07-25T22:11:28.592Z,0
2016-07-25T22:12:28.579Z,0
2016-07-25T22:13:28.574Z,0
2016-07-25T22:14:28.566Z,0
2016-07-25T22:15:28.568Z,0
2016-07-25T22:16:28.547Z,0
2016-07-25T22:17:28.543Z,0
2016-07-25T22:18:28.532Z,0
2016-07-25T22:19:28.536Z,0
2016-07-25T22:20:28.538Z,0
2016-07-25T22:21:28.525Z,0
2016-07-25T22:22:28.521Z,0
2016-07-25T22:23:28.501Z,0
2016-07-25T22:24:28.507Z,0
2016-07-25T22:25:28.499Z,0
2016-07-25T22:26:28.479Z,0
2016-07-25T22:27:28.492Z,0
2016-07-25T22:28:28.446Z,0
2016-07-25T22:29:28.459Z,0
2016-07-25T22:30:28.475Z,0
2016-07-25T22:31:28.441Z,0
2016-07-25T22:32:28.458Z,0
2016-07-25T22:33:28.492Z,0
2016-07-25T22:34:28.438Z,0
2016-07-25T22:35:28.432Z,0
2016-07-25T22:36:28.401Z,0
2016-07-25T22:37:28.426Z,0
2016-07-25T22:38:28.401Z,0
2016-07-25T22:39:28.403Z,0
2016-07-25T22:40:28.406Z,0
2016-07-25T22:41:28.384Z,0
2016-07-25T22:42:28.379Z,0
2016-07-25T22:43:28.380Z,0
2016-07-25T22:44:28.381Z,0
2016-07-25T22:45:28.373Z,0
2016-07-25T22:46:28.359Z,0
2016-07-25T22:47:28.346Z,0
2016-07-25T22:49:28.325Z,0
2016-07-25T22:50:28.337Z,0
2016-07-25T22:51:28.327Z,0
2016-07-25T22:52:28.312Z,0
2016-07-25T22:53:28.314Z,0
2016-07-25T22:54:28.301Z,0
2016-07-25T22:55:28.305Z,0
2016-07-25T22:56:28.282Z,0
2016-07-25T22:57:28.301Z,0
2016-07-25T22:58:28.280Z,0
2016-07-25T22:59:28.258Z,0
2016-07-25T23:00:28.287Z,0
2016-07-25T23:01:28.252Z,0
2016-07-25T23:02:28.971Z,0
2016-07-25T23:03:28.247Z,0
2016-07-25T23:04:28.266Z,0
2016-07-25T23:05:28.246Z,0
2016-07-25T23:06:28.251Z,0
2016-07-25T23:07:28.215Z,0
2016-07-25T23:08:28.221Z,0
2016-07-25T23:09:28.207Z,0
2016-07-25T23:10:28.210Z,0
2016-07-25T23:11:28.185Z,0
2016-07-25T23:12:28.204Z,0
2016-07-25T23:13:28.172Z,0
2016-07-25T23:14:28.177Z,0
2016-07-25T23:15:28.177Z,0
2016-07-25T23:16:28.173Z,0
2016-07-25T23:17:28.879Z,0
2016-07-25T23:18:28.198Z,0
2016-07-25T23:19:28.152Z,0
2016-07-25T23:20:28.169Z,0
2016-07-25T23:21:28.160Z,0
2016-07-25T23:22:28.128Z,0
2016-07-25T23:23:28.124Z,0
2016-07-25T23:24:28.128Z,0
2016-07-25T23:25:28.106Z,0
2016-07-25T23:26:28.104Z,0
2016-07-25T23:27:28.106Z,0
2016-07-25T23:28:28.092Z,0
2016-07-25T23:29:28.092Z,0
2016-07-25T23:30:28.098Z,0
2016-07-25T23:31:28.053Z,0
2016-07-25T23:32:28.078Z,0
2016-07-25T23:34:28.072Z,0
2016-07-25T23:35:28.027Z,0
2016-07-25T23:36:28.021Z,0
2016-07-25T23:37:28.024Z,0
2016-07-25T23:38:28.057Z,0
2016-07-25T23:39:28.002Z,0
2016-07-25T23:40:28.024Z,0
2016-07-25T23:41:27.993Z,0
2016-07-25T23:42:28.007Z,0
2016-07-25T23:43:28.007Z,0
2016-07-25T23:44:27.985Z,0
2016-07-25T23:45:27.998Z,0
2016-07-25T23:46:27.979Z,0
2016-07-25T23:47:27.987Z,0
2016-07-25T23:49:27.970Z,0
2016-07-25T23:50:27.962Z,0
2016-07-25T23:51:27.954Z,0
2016-07-25T23:52:27.934Z,0
2016-07-25T23:53:27.958Z,0
2016-07-25T23:54:27.943Z,0
2016-07-25T23:55:27.915Z,0
2016-07-25T23:56:27.927Z,0
2016-07-25T23:57:27.910Z,0
2016-07-25T23:58:27.914Z,0
2016-07-25T23:59:27.908Z,0
